This is the latest recevied weather packets stored in our database for station/object HK4RAU-41. If no packets are shown the sender has not sent any weather packets the latest 10 day(s).
| Time | Temp. | Humidity | Pressure | Rain* | Wind** | Luminosity | Snow |
|---|---|---|---|---|---|---|---|
| 1778164670 | 20.56° C | 69% | 1014 hPa | 0 mm | - | - | - |
| 1778164488 | 20.56° C | 69% | 1014 hPa | 0 mm | - | - | - |
| 1778164301 | 20.56° C | 70% | 1015 hPa | 0 mm | - | - | - |
| 1778164119 | 20.56° C | 71% | 1015 hPa | 0 mm | - | - | - |
| 1778163939 | 20.56° C | 70% | 1015 hPa | 0 mm | - | - | - |
| 1778163756 | 20.56° C | 71% | 1015 hPa | 0 mm | - | - | - |
| 1778163574 | 20° C | 72% | 1015 hPa | 0 mm | - | - | - |
| 1778163387 | 20° C | 72% | 1015 hPa | 0 mm | - | - | - |
| 1778163201 | 20° C | 72% | 1015 hPa | 0 mm | - | - | - |
| 1778163014 | 20° C | 73% | 1015 hPa | 0 mm | - | - | - |
| 1778162833 | 19.44° C | 75% | 1015 hPa | 0 mm | - | - | - |
| 1778162646 | 19.44° C | 75% | 1015 hPa | 0 mm | - | - | - |
| 1778162460 | 18.89° C | 76% | 1015 hPa | 0 mm | - | - | - |
| 1778162271 | 19.44° C | 75% | 1015 hPa | 0 mm | - | - | - |
| 1778162090 | 18.89° C | 76% | 1015 hPa | 0 mm | - | - | - |
| 1778161893 | 18.33° C | 78% | 1015 hPa | 0 mm | - | - | - |
| 1778161707 | 17.78° C | 82% | 1015 hPa | 0 mm | - | - | - |
| 1778161520 | 17.22° C | 89% | 1015 hPa | 0 mm | - | - | - |
| 1778161334 | 17.22° C | 89% | 1015 hPa | 0 mm | - | - | - |
| 1778161142 | 17.78° C | 83% | 1015 hPa | 0 mm | - | - | - |
| 1778160961 | 17.22° C | 89% | 1015 hPa | 0 mm | - | - | - |
| 1778160775 | 15.56° C | 98% | 1016 hPa | 0 mm | - | - | - |
| 1778160593 | 15.56° C | 98% | 1016 hPa | 0 mm | - | - | - |
| 1778160412 | 15.56° C | 98% | 1016 hPa | 0 mm | - | - | - |
| 1778160225 | 15.56° C | 98% | 1016 hPa | 0 mm | - | - | - |
* Rain latest hour (hover to see other rain measurements)
** Current wind speed in m/s (hover to see current wind gust speed)